Time;durP1;ratioP1;P1;durP2;ratioP2;P2;SDS_P1;SDS_P2;PMS_P1;PMS_P2;Temp;Humidity;BMP_temperature;BMP_pressure;BME280_temperature;BME280_humidity;BME280_pressure;Samples;Min_cycle;Max_cycle;Signal;HPM_P1;HPM_P2
2021/10/03 00:01:57;;;;;;;16.10;13.47;;;16.00;99.90;;;;;;5071398;28;20426;-52
2021/10/03 00:04:25;;;;;;;21.07;14.50;;;15.90;99.90;;;;;;5071740;28;20989;-52
2021/10/03 00:06:53;;;;;;;16.87;14.90;;;16.00;99.90;;;;;;5071985;28;20984;-51
2021/10/03 00:09:21;;;;;;;15.10;13.60;;;16.00;99.90;;;;;;5071189;28;20475;-53
2021/10/03 00:11:48;;;;;;;17.00;15.20;;;15.80;99.90;;;;;;5071694;28;20450;-52
2021/10/03 00:14:15;;;;;;;15.50;14.00;;;16.00;99.90;;;;;;5071675;28;20969;-52
2021/10/03 00:16:41;;;;;;;17.93;14.57;;;16.00;99.90;;;;;;5071352;28;20430;-51
2021/10/03 00:19:09;;;;;;;17.73;15.00;;;16.10;99.90;;;;;;5071473;28;20437;-51
2021/10/03 00:21:36;;;;;;;17.20;14.70;;;16.10;99.90;;;;;;5071523;28;20431;-52
2021/10/03 00:24:03;;;;;;;16.97;15.20;;;16.10;99.90;;;;;;5071583;28;20458;-51
2021/10/03 00:26:29;;;;;;;18.00;16.17;;;16.10;99.90;;;;;;5071848;28;20461;-52
2021/10/03 00:28:57;;;;;;;16.10;14.40;;;16.10;99.90;;;;;;5071204;28;20796;-52
2021/10/03 00:31:23;;;;;;;17.17;14.80;;;16.50;99.90;;;;;;5071581;28;20985;-52
2021/10/03 00:33:50;;;;;;;17.43;14.90;;;16.10;99.90;;;;;;5070946;28;20468;-51
2021/10/03 00:36:18;;;;;;;17.40;15.40;;;16.10;99.90;;;;;;5071412;28;20846;-52
2021/10/03 00:38:44;;;;;;;16.60;14.90;;;16.10;99.90;;;;;;5071166;28;20815;-52
2021/10/03 00:41:12;;;;;;;18.30;15.13;;;16.10;99.90;;;;;;5071409;28;20403;-52
2021/10/03 00:43:39;;;;;;;14.87;13.27;;;16.10;99.90;;;;;;5071390;28;20515;-52
2021/10/03 00:46:05;;;;;;;17.27;14.67;;;16.10;99.90;;;;;;5071472;28;20476;-52
2021/10/03 00:48:32;;;;;;;19.23;14.63;;;16.10;99.90;;;;;;5070862;28;20434;-51
2021/10/03 00:50:59;;;;;;;20.80;14.47;;;16.10;99.90;;;;;;5071340;28;20434;-51
2021/10/03 00:53:27;;;;;;;17.20;15.40;;;16.10;99.90;;;;;;5071181;28;20458;-51
2021/10/03 00:55:54;;;;;;;18.20;14.73;;;16.10;99.90;;;;;;5071204;28;20412;-51
2021/10/03 00:58:21;;;;;;;15.40;13.90;;;16.10;99.90;;;;;;5071655;28;20445;-51
2021/10/03 01:00:49;;;;;;;16.13;14.50;;;16.50;99.90;;;;;;5074688;28;20426;-52
2021/10/03 01:03:16;;;;;;;16.27;14.30;;;16.10;99.90;;;;;;5074966;28;20446;-51
2021/10/03 01:05:43;;;;;;;17.33;14.17;;;16.10;99.90;;;;;;5075109;28;20431;-52
2021/10/03 01:08:11;;;;;;;15.57;13.97;;;16.10;99.90;;;;;;5074704;28;20430;-51
2021/10/03 01:10:39;;;;;;;16.00;14.33;;;16.10;99.90;;;;;;5074841;28;20531;-52
2021/10/03 01:13:11;;;;;;;14.00;12.67;;;15.90;99.90;;;;;;5074831;28;20835;-52
2021/10/03 01:15:39;;;;;;;15.73;13.93;;;16.30;99.90;;;;;;5074662;28;20438;-52
2021/10/03 01:18:06;;;;;;;14.67;13.10;;;16.00;99.90;;;;;;5074432;28;20429;-52
2021/10/03 01:20:35;;;;;;;21.43;14.50;;;16.00;99.90;;;;;;5074756;28;20434;-52
2021/10/03 01:23:04;;;;;;;14.87;13.30;;;16.00;99.90;;;;;;5074788;28;20424;-52
2021/10/03 01:25:31;;;;;;;14.77;12.70;;;16.00;99.90;;;;;;5074664;28;20867;-51
2021/10/03 01:27:58;;;;;;;18.20;14.30;;;15.90;99.90;;;;;;5074160;28;20557;-51
2021/10/03 01:30:26;;;;;;;19.73;13.70;;;15.90;99.90;;;;;;5074342;28;20486;-52
2021/10/03 01:32:53;;;;;;;15.10;13.47;;;16.20;99.90;;;;;;5074517;28;20449;-52
2021/10/03 01:35:20;;;;;;;15.40;13.77;;;15.90;99.90;;;;;;5074826;28;20564;-52
2021/10/03 01:37:49;;;;;;;15.73;14.20;;;15.90;99.90;;;;;;5074036;28;20433;-52
2021/10/03 01:40:19;;;;;;;15.73;13.20;;;16.30;99.90;;;;;;5074442;28;20445;-52
2021/10/03 01:42:46;;;;;;;18.70;14.40;;;15.90;99.90;;;;;;5055920;28;20541;-52
2021/10/03 01:45:16;;;;;;;17.97;13.13;;;15.90;99.90;;;;;;5074188;28;20457;-52
2021/10/03 01:48:01;;;;;;;14.40;12.87;;;16.10;99.90;;;;;;5074056;28;20819;-52
2021/10/03 01:50:28;;;;;;;15.57;13.20;;;15.90;99.90;;;;;;5074366;28;20451;-51
2021/10/03 01:52:55;;;;;;;20.23;12.67;;;15.90;99.90;;;;;;5074327;28;20432;-52
2021/10/03 01:55:23;;;;;;;15.33;13.33;;;15.90;99.90;;;;;;5073979;28;20449;-52
2021/10/03 01:57:49;;;;;;;14.80;13.20;;;15.90;99.90;;;;;;5073777;28;20429;-52
2021/10/03 02:00:16;;;;;;;15.70;12.80;;;15.90;99.90;;;;;;5073858;28;20962;-52
2021/10/03 02:02:45;;;;;;;13.87;12.47;;;15.90;99.90;;;;;;5073916;28;20449;-52
2021/10/03 02:05:11;;;;;;;17.37;13.80;;;15.90;99.90;;;;;;5073979;28;20901;-52
2021/10/03 02:07:38;;;;;;;13.97;12.20;;;15.90;99.90;;;;;;5073616;28;20554;-51
2021/10/03 02:10:06;;;;;;;15.37;11.77;;;15.80;99.90;;;;;;5055373;28;20478;-51
2021/10/03 02:12:34;;;;;;;14.30;12.83;;;15.90;99.90;;;;;;5073900;28;20434;-52
2021/10/03 02:15:00;;;;;;;14.60;12.90;;;16.30;99.90;;;;;;5073758;28;20471;-52
2021/10/03 02:17:30;;;;;;;13.80;12.13;;;15.90;99.90;;;;;;5073541;28;20921;-52
2021/10/03 02:19:57;;;;;;;14.10;12.27;;;16.20;99.90;;;;;;5073812;28;20402;-52
2021/10/03 02:22:25;;;;;;;16.57;11.37;;;15.80;99.90;;;;;;5073888;28;20696;-52
2021/10/03 02:24:56;;;;;;;13.47;12.10;;;15.90;99.90;;;;;;5073844;28;20534;-52
2021/10/03 02:27:24;;;;;;;14.67;11.63;;;15.80;99.90;;;;;;5074352;28;20452;-52
2021/10/03 02:29:52;;;;;;;13.20;11.87;;;15.80;99.90;;;;;;5074071;28;20484;-52
2021/10/03 02:32:20;;;;;;;12.53;11.23;;;15.80;99.90;;;;;;5073466;28;20405;-52
2021/10/03 02:34:47;;;;;;;12.20;11.07;;;15.70;99.90;;;;;;5073798;28;20473;-52
2021/10/03 02:37:14;;;;;;;13.37;11.40;;;15.80;99.90;;;;;;5073497;28;20479;-51
2021/10/03 02:39:40;;;;;;;12.90;11.50;;;15.80;99.90;;;;;;5073068;28;20437;-52
2021/10/03 02:42:07;;;;;;;14.73;11.67;;;15.80;99.90;;;;;;5073340;28;20432;-52
2021/10/03 02:44:34;;;;;;;12.23;11.03;;;15.80;99.90;;;;;;5073133;28;20461;-51
2021/10/03 02:47:02;;;;;;;12.70;11.23;;;15.80;99.90;;;;;;5073202;28;20430;-52
2021/10/03 02:49:28;;;;;;;12.20;11.07;;;15.80;99.90;;;;;;5072474;28;20882;-52
2021/10/03 02:51:55;;;;;;;14.50;11.93;;;15.80;99.90;;;;;;5073138;28;20437;-51
2021/10/03 02:54:22;;;;;;;15.10;12.10;;;15.80;99.90;;;;;;5072819;28;20464;-52
2021/10/03 02:56:48;;;;;;;12.37;10.43;;;15.80;99.90;;;;;;5073023;28;20428;-51
2021/10/03 02:59:15;;;;;;;14.63;11.10;;;15.80;99.90;;;;;;5072625;28;20867;-52
2021/10/03 03:01:41;;;;;;;17.53;12.20;;;15.20;99.90;;;;;;5072918;28;20435;-51
2021/10/03 03:04:09;;;;;;;12.17;10.97;;;16.10;99.90;;;;;;5072730;28;20987;-51
2021/10/03 03:06:36;;;;;;;11.90;10.70;;;16.30;99.90;;;;;;5072766;28;20932;-52
2021/10/03 03:09:02;;;;;;;15.03;11.30;;;16.00;99.90;;;;;;5072242;28;20784;-52
2021/10/03 03:11:29;;;;;;;14.80;11.57;;;15.80;99.90;;;;;;5072644;28;21009;-51
2021/10/03 03:13:55;;;;;;;15.90;12.43;;;15.70;99.90;;;;;;5072577;28;20456;-52
2021/10/03 03:16:22;;;;;;;10.93;9.83;;;15.70;99.90;;;;;;5072624;28;20437;-52
2021/10/03 03:18:49;;;;;;;12.43;11.23;;;15.70;99.90;;;;;;5072349;28;20434;-52
2021/10/03 03:21:17;;;;;;;15.57;10.80;;;15.70;99.90;;;;;;5072307;28;20434;-51
2021/10/03 03:23:43;;;;;;;16.20;11.53;;;15.70;99.90;;;;;;5071890;28;20461;-51
2021/10/03 03:26:10;;;;;;;12.47;10.50;;;15.70;99.90;;;;;;5072773;28;20461;-52
2021/10/03 03:28:37;;;;;;;12.20;11.00;;;15.80;99.90;;;;;;5072362;28;20404;-51
2021/10/03 03:31:04;;;;;;;19.70;11.97;;;15.70;99.90;;;;;;5072577;28;20564;-52
2021/10/03 03:33:31;;;;;;;14.03;11.03;;;15.40;99.90;;;;;;5072319;28;20457;-53
2021/10/03 03:35:57;;;;;;;13.80;11.60;;;15.70;99.90;;;;;;5072527;28;20440;-52
2021/10/03 03:38:25;;;;;;;15.47;11.43;;;15.90;99.90;;;;;;5071940;28;20430;-53
2021/10/03 03:40:52;;;;;;;12.00;10.80;;;15.70;99.90;;;;;;5072125;28;20468;-52
2021/10/03 03:43:19;;;;;;;12.93;10.70;;;15.70;99.90;;;;;;5072171;28;20429;-53
2021/10/03 03:45:45;;;;;;;16.70;10.90;;;15.70;99.90;;;;;;5072163;28;20494;-53
2021/10/03 03:48:12;;;;;;;12.33;11.03;;;15.70;99.90;;;;;;5053660;28;20446;-53
2021/10/03 03:50:40;;;;;;;11.87;10.63;;;16.10;99.90;;;;;;5071917;28;20481;-53
2021/10/03 03:53:06;;;;;;;13.10;11.47;;;15.50;99.90;;;;;;5071699;28;20438;-53
2021/10/03 03:55:34;;;;;;;11.63;10.60;;;15.90;99.90;;;;;;5072149;28;20946;-52
2021/10/03 03:58:01;;;;;;;15.50;10.87;;;16.00;99.90;;;;;;5071533;28;20438;-53
2021/10/03 04:00:27;;;;;;;11.93;10.73;;;15.80;99.90;;;;;;5071735;28;20792;-53
2021/10/03 04:02:54;;;;;;;12.03;10.83;;;15.80;99.90;;;;;;5071978;28;20426;-52
2021/10/03 04:05:20;;;;;;;12.57;11.27;;;15.80;99.90;;;;;;5071678;28;20453;-52
2021/10/03 04:07:47;;;;;;;12.83;11.63;;;15.80;99.90;;;;;;5071411;28;20760;-53
2021/10/03 04:10:14;;;;;;;12.40;11.10;;;15.80;99.90;;;;;;5071757;28;20579;-53
2021/10/03 04:12:42;;;;;;;11.67;10.57;;;15.70;99.90;;;;;;5071741;28;20949;-53
2021/10/03 04:15:10;;;;;;;13.60;11.50;;;15.60;99.90;;;;;;5071540;28;20456;-52
2021/10/03 04:17:37;;;;;;;15.20;11.40;;;15.80;99.90;;;;;;5071673;28;20427;-52
2021/10/03 04:20:05;;;;;;;11.77;10.70;;;15.90;99.90;;;;;;5071353;28;20449;-52
2021/10/03 04:22:32;;;;;;;11.30;10.20;;;15.80;99.90;;;;;;5071494;28;20429;-52
2021/10/03 04:24:58;;;;;;;14.27;10.50;;;15.60;99.90;;;;;;5071416;28;20456;-53
2021/10/03 04:27:25;;;;;;;15.10;10.93;;;16.00;99.90;;;;;;5071392;28;20446;-52
2021/10/03 04:29:53;;;;;;;13.30;11.27;;;15.70;99.90;;;;;;5071339;28;20489;-52
2021/10/03 04:32:20;;;;;;;12.00;10.80;;;15.80;99.90;;;;;;5071487;28;20927;-52
2021/10/03 04:34:46;;;;;;;12.87;11.50;;;16.00;99.90;;;;;;5070504;28;20453;-53
2021/10/03 04:37:13;;;;;;;12.40;10.73;;;15.90;99.90;;;;;;5071499;28;20455;-53
2021/10/03 04:39:40;;;;;;;17.03;12.07;;;16.00;99.90;;;;;;5071245;28;20498;-52
2021/10/03 04:42:06;;;;;;;11.93;10.50;;;15.70;99.90;;;;;;5071451;28;20445;-52
2021/10/03 04:44:33;;;;;;;18.20;11.37;;;15.70;99.90;;;;;;5071605;28;20809;-52
2021/10/03 04:47:01;;;;;;;13.17;11.90;;;15.50;99.90;;;;;;5071365;28;20449;-53
2021/10/03 04:49:27;;;;;;;14.20;12.23;;;15.60;99.90;;;;;;5071004;28;20810;-52
2021/10/03 04:51:54;;;;;;;12.77;11.47;;;15.60;99.90;;;;;;5071558;28;20479;-53
2021/10/03 04:54:21;;;;;;;13.57;11.40;;;15.60;99.90;;;;;;5071488;28;20454;-53
2021/10/03 04:56:47;;;;;;;15.53;11.90;;;15.30;99.90;;;;;;5071730;28;21009;-53
2021/10/03 04:59:14;;;;;;;13.10;11.73;;;15.80;99.90;;;;;;5071099;28;20426;-52
2021/10/03 05:01:41;;;;;;;10.83;9.87;;;16.00;99.90;;;;;;5071676;28;20889;-52
2021/10/03 05:04:09;;;;;;;13.00;11.20;;;15.60;99.90;;;;;;5071033;28;20513;-52
2021/10/03 05:06:35;;;;;;;12.73;11.30;;;15.60;99.90;;;;;;5071227;28;20445;-52
2021/10/03 05:09:02;;;;;;;13.30;11.90;;;15.90;99.90;;;;;;5070895;28;20429;-53
2021/10/03 05:11:28;;;;;;;12.53;11.20;;;15.60;99.90;;;;;;5071012;28;20496;-52
2021/10/03 05:13:55;;;;;;;14.37;11.73;;;16.10;99.90;;;;;;5071011;28;20457;-53
2021/10/03 05:16:21;;;;;;;14.13;11.37;;;15.60;99.90;;;;;;5071602;28;20440;-53
2021/10/03 05:18:48;;;;;;;14.60;11.20;;;15.70;99.90;;;;;;5070573;28;20433;-53
2021/10/03 05:21:16;;;;;;;13.97;12.07;;;15.70;99.90;;;;;;5071160;28;20429;-52
2021/10/03 05:23:43;;;;;;;16.53;11.80;;;15.70;99.90;;;;;;5070875;28;20457;-52
2021/10/03 05:26:09;;;;;;;12.20;11.00;;;15.70;99.90;;;;;;5070958;28;20443;-52
2021/10/03 05:28:36;;;;;;;13.20;11.77;;;15.90;99.90;;;;;;5070537;28;20453;-53
2021/10/03 05:31:03;;;;;;;17.87;11.93;;;16.00;99.90;;;;;;5070797;28;20455;-52
2021/10/03 05:33:29;;;;;;;13.10;11.80;;;15.60;99.90;;;;;;5070585;28;20472;-53
2021/10/03 05:35:56;;;;;;;12.40;11.13;;;16.10;99.90;;;;;;5070798;28;20786;-53
2021/10/03 05:38:24;;;;;;;14.10;11.63;;;16.10;99.90;;;;;;5070489;28;20434;-53
2021/10/03 05:40:50;;;;;;;13.77;12.17;;;16.10;99.90;;;;;;5070865;28;20434;-52
2021/10/03 05:43:17;;;;;;;14.83;13.10;;;15.80;99.90;;;;;;5070700;28;20430;-52
2021/10/03 05:45:44;;;;;;;14.37;12.90;;;15.80;99.90;;;;;;5071854;28;20433;-52
2021/10/03 05:48:11;;;;;;;12.77;11.57;;;15.80;99.90;;;;;;5073866;28;20431;-53
2021/10/03 05:50:38;;;;;;;13.87;12.20;;;15.80;99.90;;;;;;5074043;28;20454;-53
2021/10/03 05:53:04;;;;;;;13.70;12.20;;;15.80;99.90;;;;;;5074259;28;20455;-52
2021/10/03 05:55:32;;;;;;;12.87;11.30;;;15.70;99.90;;;;;;5074384;28;20441;-52
2021/10/03 05:57:59;;;;;;;16.17;11.70;;;16.20;99.90;;;;;;5073771;28;20433;-52
2021/10/03 06:00:27;;;;;;;13.80;12.00;;;15.80;99.90;;;;;;5074135;28;20866;-53
2021/10/03 06:02:54;;;;;;;12.77;11.60;;;15.80;99.90;;;;;;5074183;28;20489;-53
2021/10/03 06:05:21;;;;;;;12.50;11.20;;;15.80;99.90;;;;;;5074052;28;20457;-52
2021/10/03 06:07:47;;;;;;;19.13;12.90;;;15.80;99.90;;;;;;5073626;28;20435;-53
2021/10/03 06:10:14;;;;;;;16.83;13.00;;;16.00;99.90;;;;;;5074261;28;20437;-53
2021/10/03 06:12:42;;;;;;;13.30;12.00;;;15.90;99.90;;;;;;5073786;28;20450;-52
2021/10/03 06:15:09;;;;;;;18.33;12.87;;;16.10;99.90;;;;;;5073818;28;20461;-53
2021/10/03 06:17:36;;;;;;;13.80;12.60;;;15.90;99.90;;;;;;5073658;28;20433;-53
2021/10/03 06:20:04;;;;;;;13.23;11.90;;;15.90;99.90;;;;;;5073863;28;20434;-52
2021/10/03 06:22:31;;;;;;;13.10;11.80;;;15.90;99.90;;;;;;5073813;28;20437;-53
2021/10/03 06:24:57;;;;;;;16.13;11.83;;;16.00;99.90;;;;;;5073736;28;20421;-52
2021/10/03 06:27:24;;;;;;;18.90;13.47;;;15.60;99.90;;;;;;5073685;28;20426;-50
2021/10/03 06:29:53;;;;;;;12.90;11.50;;;15.90;99.90;;;;;;5073643;28;20446;-50
2021/10/03 06:32:19;;;;;;;13.40;12.00;;;16.30;99.90;;;;;;5073383;28;20480;-51
2021/10/03 06:34:46;;;;;;;12.50;11.20;;;16.00;99.90;;;;;;5073021;28;20474;-53
2021/10/03 06:37:12;;;;;;;13.60;11.63;;;16.00;99.90;;;;;;5073405;28;20449;-51
2021/10/03 06:39:39;;;;;;;14.20;12.80;;;16.00;99.90;;;;;;5054945;28;20452;-51
2021/10/03 06:42:06;;;;;;;14.87;13.20;;;16.10;99.90;;;;;;5073143;28;20441;-51
2021/10/03 06:44:32;;;;;;;14.03;12.70;;;16.50;99.90;;;;;;5073408;28;20446;-51
2021/10/03 06:47:00;;;;;;;14.57;13.10;;;16.60;99.90;;;;;;5073197;28;20432;-51
2021/10/03 06:49:27;;;;;;;16.47;12.47;;;16.20;99.90;;;;;;5072748;28;20408;-51
2021/10/03 06:51:54;;;;;;;14.20;12.57;;;16.20;99.90;;;;;;5073037;28;20496;-51
2021/10/03 06:54:20;;;;;;;14.90;12.33;;;16.30;99.90;;;;;;5072806;28;20989;-51
2021/10/03 06:56:47;;;;;;;16.57;11.70;;;16.40;99.90;;;;;;5072772;28;20441;-52
2021/10/03 06:59:14;;;;;;;12.37;11.17;;;16.40;99.90;;;;;;5072484;28;20433;-51
2021/10/03 07:01:40;;;;;;;14.83;11.97;;;16.80;99.90;;;;;;5072905;28;20799;-52
2021/10/03 07:04:08;;;;;;;15.10;13.63;;;16.50;99.90;;;;;;5072816;28;20451;-52
2021/10/03 07:06:35;;;;;;;13.73;12.03;;;16.50;99.90;;;;;;5072868;28;20830;-51
2021/10/03 07:09:02;;;;;;;13.93;12.50;;;16.50;99.90;;;;;;5071958;28;20431;-52
2021/10/03 07:11:29;;;;;;;13.03;11.73;;;16.50;99.80;;;;;;5072697;28;20484;-52
2021/10/03 07:13:55;;;;;;;15.37;13.97;;;16.60;99.90;;;;;;5072526;28;20457;-52
2021/10/03 07:16:22;;;;;;;15.27;13.80;;;16.60;99.90;;;;;;5072424;28;20446;-53
2021/10/03 07:18:49;;;;;;;14.97;13.37;;;16.60;99.90;;;;;;5072152;28;20493;-53
2021/10/03 07:21:17;;;;;;;12.90;11.77;;;16.60;99.90;;;;;;5072354;28;20525;-53
2021/10/03 07:23:43;;;;;;;14.53;12.93;;;16.70;99.90;;;;;;5072160;28;20456;-53
2021/10/03 07:26:11;;;;;;;14.23;12.60;;;16.70;99.90;;;;;;5072519;28;20435;-53
2021/10/03 07:28:38;;;;;;;13.50;12.10;;;16.80;99.90;;;;;;5072136;28;20475;-53
2021/10/03 07:31:05;;;;;;;21.17;13.37;;;16.40;99.90;;;;;;5072113;28;20489;-53
2021/10/03 07:33:32;;;;;;;16.07;11.90;;;16.50;99.90;;;;;;5071967;28;20500;-53
2021/10/03 07:35:59;;;;;;;12.53;11.43;;;16.90;99.90;;;;;;5071993;28;20435;-53
2021/10/03 07:38:27;;;;;;;18.03;12.70;;;17.00;99.90;;;;;;5071799;28;20950;-53
2021/10/03 07:40:54;;;;;;;14.87;13.37;;;16.80;99.90;;;;;;5072056;28;20434;-53
2021/10/03 07:43:20;;;;;;;15.77;13.13;;;16.90;99.90;;;;;;5072214;28;20431;-53
2021/10/03 07:45:47;;;;;;;15.63;11.93;;;16.90;99.90;;;;;;5072225;28;20445;-52
2021/10/03 07:48:13;;;;;;;14.60;11.87;;;16.90;99.90;;;;;;5071563;28;20439;-53
2021/10/03 07:50:40;;;;;;;13.73;11.23;;;17.00;99.90;;;;;;5071804;28;20522;-51
2021/10/03 07:53:07;;;;;;;14.10;12.60;;;17.00;99.80;;;;;;5071667;28;20478;-52
2021/10/03 07:55:35;;;;;;;11.87;10.43;;;17.10;99.80;;;;;;5072094;28;20446;-52
2021/10/03 07:58:05;;;;;;;14.77;13.10;;;17.00;99.50;;;;;;5071522;28;20851;-52
2021/10/03 08:00:32;;;;;;;13.67;12.30;;;17.50;99.80;;;;;;5071821;28;20512;-52
2021/10/03 08:02:59;;;;;;;13.27;11.87;;;17.10;99.60;;;;;;5071788;28;20435;-51
2021/10/03 08:05:26;;;;;;;12.60;11.43;;;17.20;99.50;;;;;;5071565;28;20458;-52
2021/10/03 08:07:53;;;;;;;18.13;12.70;;;17.20;99.50;;;;;;5070665;28;20469;-52
2021/10/03 08:10:20;;;;;;;13.47;11.70;;;17.10;99.50;;;;;;5071674;28;20442;-52
2021/10/03 08:12:48;;;;;;;12.70;11.50;;;17.20;99.50;;;;;;5053853;28;20490;-52
2021/10/03 08:15:15;;;;;;;15.87;12.87;;;17.60;99.70;;;;;;5071246;28;20958;-51
2021/10/03 08:17:42;;;;;;;14.63;12.00;;;17.20;99.50;;;;;;5070936;28;20798;-53
2021/10/03 08:20:09;;;;;;;12.63;11.33;;;17.40;99.50;;;;;;5072084;28;20436;-52
2021/10/03 08:22:36;;;;;;;12.53;11.23;;;17.20;99.30;;;;;;5071444;28;20439;-53
2021/10/03 08:25:05;;;;;;;11.17;10.17;;;17.20;99.30;;;;;;5071743;28;20601;-53
2021/10/03 08:27:32;;;;;;;13.37;12.13;;;17.30;99.30;;;;;;5071354;28;20467;-53
2021/10/03 08:30:01;;;;;;;12.50;11.17;;;17.30;99.30;;;;;;5070859;28;20438;-54
2021/10/03 08:32:27;;;;;;;12.40;11.10;;;17.70;99.50;;;;;;5071081;28;20531;-52
2021/10/03 08:34:55;;;;;;;12.63;11.47;;;17.40;99.20;;;;;;5065116;22;20496;-49
2021/10/03 08:37:22;;;;;;;12.80;11.50;;;17.40;99.20;;;;;;5051242;28;20440;-49
2021/10/03 08:39:49;;;;;;;13.50;11.10;;;17.40;99.20;;;;;;5050964;28;20411;-49
2021/10/03 08:42:15;;;;;;;13.67;12.40;;;17.40;99.20;;;;;;5051165;28;20432;-48
2021/10/03 08:44:42;;;;;;;12.10;10.93;;;17.50;99.20;;;;;;5051096;28;20806;-49
2021/10/03 08:47:11;;;;;;;15.67;12.10;;;17.50;99.10;;;;;;5051293;28;20441;-49
2021/10/03 08:49:38;;;;;;;19.33;13.13;;;17.60;99.10;;;;;;5050775;28;20466;-49
2021/10/03 08:52:06;;;;;;;11.80;10.60;;;17.70;99.10;;;;;;5051300;28;20562;-49
2021/10/03 08:54:35;;;;;;;14.40;11.60;;;17.70;98.90;;;;;;5051139;28;20460;-49
2021/10/03 08:57:02;;;;;;;13.53;11.83;;;17.70;98.90;;;;;;5051210;28;20445;-49
2021/10/03 08:59:28;;;;;;;14.00;11.43;;;17.80;98.80;;;;;;5050537;28;21012;-49
2021/10/03 09:01:57;;;;;;;13.57;11.50;;;17.90;98.80;;;;;;5033214;28;20445;-49
2021/10/03 09:04:27;;;;;;;12.90;11.63;;;18.00;98.70;;;;;;5050948;28;20477;-49
2021/10/03 09:07:01;;;;;;;14.40;11.10;;;18.10;98.60;;;;;;5051114;28;20452;-49
2021/10/03 09:09:50;;;;;;;12.17;10.97;;;18.30;98.50;;;;;;5050595;28;20440;-49
2021/10/03 09:12:25;;;;;;;11.90;9.93;;;18.30;98.40;;;;;;5050955;28;20477;-49
2021/10/03 09:14:52;;;;;;;13.87;11.93;;;18.30;98.30;;;;;;5052360;28;20459;-49
2021/10/03 09:17:19;;;;;;;16.30;10.87;;;18.30;98.20;;;;;;5051480;28;20444;-50
2021/10/03 09:20:10;;;;;;;11.97;10.80;;;18.40;98.30;;;;;;5050776;28;20457;-49
2021/10/03 09:22:59;;;;;;;11.50;10.30;;;18.40;98.00;;;;;;5036710;28;20481;-49
2021/10/03 09:25:43;;;;;;;12.50;11.20;;;18.50;98.00;;;;;;5054532;28;20475;-49
2021/10/03 09:28:13;;;;;;;11.80;10.60;;;18.40;98.00;;;;;;5054256;28;20449;-50
2021/10/03 09:30:55;;;;;;;12.00;10.70;;;18.50;98.10;;;;;;5054438;28;20433;-50
2021/10/03 09:33:22;;;;;;;13.17;10.73;;;18.50;98.00;;;;;;5054514;28;20524;-50
2021/10/03 09:35:59;;;;;;;12.00;10.70;;;18.60;98.10;;;;;;5054148;28;20465;-49
2021/10/03 09:38:27;;;;;;;12.00;10.90;;;18.60;97.90;;;;;;5036153;28;20427;-50
2021/10/03 09:41:02;;;;;;;11.43;10.37;;;18.60;98.10;;;;;;5054140;28;20442;-50
2021/10/03 09:43:39;;;;;;;13.10;11.80;;;18.60;98.10;;;;;;5054213;28;20440;-50
2021/10/03 09:46:06;;;;;;;11.43;10.33;;;18.60;98.20;;;;;;5054302;28;20488;-50
2021/10/03 09:48:47;;;;;;;12.47;11.20;;;18.60;98.20;;;;;;5053824;28;20442;-50
2021/10/03 09:51:16;;;;;;;12.67;10.00;;;18.70;98.20;;;;;;5054103;28;20498;-50
2021/10/03 09:53:43;;;;;;;13.90;12.30;;;18.60;98.20;;;;;;5054493;28;20755;-50
2021/10/03 09:56:10;;;;;;;12.90;11.70;;;18.80;98.30;;;;;;5054184;28;20495;-50
2021/10/03 09:58:38;;;;;;;13.17;11.90;;;18.90;98.30;;;;;;5053786;28;21125;-49
2021/10/03 10:01:05;;;;;;;13.83;11.00;;;19.00;98.20;;;;;;5054249;28;20470;-49
2021/10/03 10:03:32;;;;;;;12.60;11.37;;;19.10;98.10;;;;;;5054424;28;20446;-50
2021/10/03 10:05:59;;;;;;;14.00;11.00;;;19.20;98.10;;;;;;5054486;28;20451;-50
2021/10/03 10:08:27;;;;;;;10.60;9.60;;;19.20;98.00;;;;;;5053866;28;20434;-50
2021/10/03 10:10:56;;;;;;;12.87;11.33;;;19.10;97.80;;;;;;5054541;28;20449;-48
2021/10/03 10:13:24;;;;;;;12.87;10.73;;;19.30;97.80;;;;;;5053693;28;20481;-49
2021/10/03 10:15:50;;;;;;;11.83;10.70;;;19.40;97.70;;;;;;5053782;28;20947;-50
2021/10/03 10:18:21;;;;;;;11.57;10.20;;;19.50;97.70;;;;;;5053412;28;20441;-49
2021/10/03 10:20:49;;;;;;;11.43;10.30;;;19.60;97.30;;;;;;5035550;28;20543;-49
2021/10/03 10:23:18;;;;;;;12.13;10.87;;;19.70;97.40;;;;;;5053487;28;20428;-49
2021/10/03 10:25:49;;;;;;;23.33;10.47;;;19.80;97.20;;;;;;5053426;28;20459;-49
2021/10/03 10:28:22;;;;;;;10.97;9.87;;;19.90;97.10;;;;;;5053180;28;20530;-51
2021/10/03 10:31:08;;;;;;;11.90;10.70;;;19.90;96.90;;;;;;5036269;28;20450;-48
2021/10/03 10:34:04;;;;;;;11.17;10.07;;;20.10;96.70;;;;;;5054394;28;20501;-49
2021/10/03 10:36:33;;;;;;;11.03;10.03;;;20.20;96.60;;;;;;5053976;28;20488;-50
2021/10/03 10:39:20;;;;;;;9.60;8.70;;;20.30;96.70;;;;;;5053713;28;20439;-50
2021/10/03 10:41:50;;;;;;;10.97;9.73;;;20.30;96.50;;;;;;5053458;28;20439;-49
2021/10/03 10:44:32;;;;;;;10.50;9.57;;;20.40;96.60;;;;;;5054220;28;20797;-50
2021/10/03 10:47:00;;;;;;;10.40;9.40;;;20.40;96.40;;;;;;5053116;28;20457;-50
2021/10/03 10:49:33;;;;;;;13.17;9.30;;;20.40;96.30;;;;;;5052447;28;20435;-50
2021/10/03 10:52:26;;;;;;;10.67;9.40;;;20.50;96.20;;;;;;5052448;28;20480;-50
2021/10/03 10:55:21;;;;;;;9.40;8.50;;;20.50;96.20;;;;;;5052787;28;20970;-50
2021/10/03 10:58:10;;;;;;;11.00;9.53;;;20.60;96.30;;;;;;5052429;28;20932;-50
2021/10/03 11:00:54;;;;;;;14.30;8.67;;;20.70;96.20;;;;;;5052863;28;20446;-50
2021/10/03 11:03:21;;;;;;;10.60;9.50;;;20.70;96.00;;;;;;5052662;28;20441;-50
2021/10/03 11:05:48;;;;;;;9.47;8.50;;;20.70;96.10;;;;;;5052275;28;20459;-50
2021/10/03 11:08:16;;;;;;;10.90;9.80;;;20.80;96.00;;;;;;5051510;28;20463;-50
2021/10/03 11:11:16;;;;;;;10.77;9.20;;;20.90;96.00;;;;;;5052246;28;20433;-50
2021/10/03 11:13:46;;;;;;;10.17;9.30;;;21.00;95.90;;;;;;5033881;28;20481;-50
2021/10/03 11:16:24;;;;;;;9.83;8.70;;;21.00;95.80;;;;;;5034558;28;20829;-50
2021/10/03 11:18:52;;;;;;;15.10;9.57;;;21.10;95.60;;;;;;5051998;28;20456;-50
2021/10/03 11:21:24;;;;;;;10.43;8.80;;;21.00;95.60;;;;;;5051915;28;20487;-51
2021/10/03 11:23:51;;;;;;;10.50;8.60;;;21.00;95.50;;;;;;5052234;28;20831;-50
2021/10/03 11:26:19;;;;;;;9.87;8.53;;;21.00;95.70;;;;;;5052087;28;20518;-50
2021/10/03 11:28:51;;;;;;;9.47;8.43;;;21.10;95.60;;;;;;5051701;28;20440;-50
2021/10/03 11:31:40;;;;;;;9.80;8.90;;;21.10;95.70;;;;;;5051930;28;20448;-50
2021/10/03 11:34:08;;;;;;;9.10;8.23;;;21.10;95.20;;;;;;5033513;28;20543;-50
2021/10/03 11:36:47;;;;;;;11.70;8.00;;;21.20;95.20;;;;;;5051602;28;20440;-50
2021/10/03 11:39:13;;;;;;;11.53;9.73;;;21.20;94.90;;;;;;5051474;28;20441;-50
2021/10/03 11:41:47;;;;;;;12.20;8.40;;;21.20;94.60;;;;;;5052136;28;20777;-50
2021/10/03 11:44:20;;;;;;;9.10;8.20;;;21.30;94.10;;;;;;5050953;28;20449;-50
2021/10/03 11:46:56;;;;;;;12.63;8.70;;;21.40;94.20;;;;;;5033849;28;20820;-50
2021/10/03 11:49:28;;;;;;;8.83;8.03;;;21.40;94.20;;;;;;5053083;28;20438;-51
2021/10/03 11:51:55;;;;;;;9.47;8.57;;;21.50;94.30;;;;;;5052022;28;20851;-50
2021/10/03 11:54:30;;;;;;;9.13;8.20;;;21.50;94.30;;;;;;5051700;28;20494;-49
2021/10/03 11:56:57;;;;;;;9.30;8.40;;;21.60;93.70;;;;;;5051757;28;20491;-49
2021/10/03 11:59:25;;;;;;;9.20;7.57;;;21.60;93.80;;;;;;5051121;28;20537;-49
2021/10/03 12:01:51;;;;;;;11.37;9.23;;;21.70;93.70;;;;;;5051171;28;20437;-50
2021/10/03 12:04:28;;;;;;;8.57;7.63;;;21.80;93.80;;;;;;5051193;28;20461;-50
2021/10/03 12:06:55;;;;;;;11.03;8.40;;;21.80;93.70;;;;;;5051658;28;20445;-50
2021/10/03 12:09:23;;;;;;;9.20;8.07;;;21.80;93.20;;;;;;5050891;28;20442;-50
2021/10/03 12:11:54;;;;;;;11.37;8.37;;;21.90;93.40;;;;;;5051379;28;20438;-50
2021/10/03 12:14:20;;;;;;;8.80;7.97;;;21.80;92.90;;;;;;5051192;28;20490;-50
2021/10/03 12:16:52;;;;;;;8.30;7.50;;;21.90;92.90;;;;;;5051229;28;20427;-50
2021/10/03 12:19:19;;;;;;;9.87;8.87;;;21.90;92.70;;;;;;5050637;28;20926;-50
2021/10/03 12:21:45;;;;;;;13.57;7.80;;;22.00;92.60;;;;;;5051277;28;20441;-49
2021/10/03 12:24:12;;;;;;;9.37;8.47;;;22.00;92.70;;;;;;5051130;28;20460;-50
2021/10/03 12:26:41;;;;;;;8.47;7.50;;;22.10;92.90;;;;;;5050797;28;20438;-49
2021/10/03 12:29:18;;;;;;;9.80;8.80;;;22.10;92.90;;;;;;5050753;28;20435;-50
2021/10/03 12:31:52;;;;;;;8.90;8.00;;;22.20;92.70;;;;;;5051200;28;20453;-50
2021/10/03 12:34:31;;;;;;;14.13;7.67;;;22.20;92.80;;;;;;5050959;28;20531;-50
2021/10/03 12:37:02;;;;;;;10.20;8.07;;;22.50;92.80;;;;;;5050960;28;20434;-49